createdAt,value
2022-09-05T00:01:53.483Z,2.22
2022-09-05T00:04:25.067Z,2.42
2022-09-05T00:07:03.160Z,2.50
2022-09-05T00:09:44.823Z,2.40
2022-09-05T00:12:11.945Z,2.50
2022-09-05T00:15:17.033Z,2.50
2022-09-05T00:19:12.058Z,2.40
2022-09-05T00:24:26.772Z,2.35
2022-09-05T00:24:27.421Z,2.20
2022-09-05T00:26:08.421Z,2.47
2022-09-05T00:28:43.098Z,2.72
2022-09-05T00:31:55.844Z,2.45
2022-09-05T00:33:58.574Z,2.63
2022-09-05T00:36:43.868Z,2.75
2022-09-05T00:39:17.876Z,2.42
2022-09-05T00:41:46.865Z,2.40
2022-09-05T00:44:14.225Z,2.90
2022-09-05T00:46:49.671Z,2.50
2022-09-05T00:49:31.534Z,2.38
2022-09-05T00:52:12.702Z,2.50
2022-09-05T00:54:57.811Z,2.83
2022-09-05T00:57:50.291Z,2.50
2022-09-05T01:00:17.796Z,2.50
2022-09-05T01:03:00.447Z,2.20
2022-09-05T01:05:42.111Z,2.03
2022-09-05T01:08:11.514Z,2.30
2022-09-05T01:10:42.334Z,2.20
2022-09-05T01:13:19.982Z,2.50
2022-09-05T01:15:52.282Z,2.50
2022-09-05T01:18:18.603Z,2.28
2022-09-05T01:20:47.940Z,2.78
2022-09-05T01:23:15.482Z,2.70
2022-09-05T01:25:55.269Z,2.95
2022-09-05T01:29:15.981Z,2.50
2022-09-05T01:31:29.954Z,2.60
2022-09-05T01:33:59.357Z,2.08
2022-09-05T01:36:28.723Z,2.45
2022-09-05T01:40:11.539Z,2.80
2022-09-05T01:42:08.948Z,2.05
2022-09-05T01:45:04.729Z,2.55
2022-09-05T01:47:46.111Z,2.30
2022-09-05T01:50:31.432Z,1.75
2022-09-05T01:53:07.090Z,2.75
2022-09-05T01:56:04.882Z,2.42
2022-09-05T01:58:46.103Z,2.33
2022-09-05T02:01:25.141Z,2.35
2022-09-05T02:03:59.287Z,2.40
2022-09-05T02:06:48.950Z,2.20
2022-09-05T02:09:30.603Z,2.60
2022-09-05T02:12:00.851Z,2.38
2022-09-05T02:14:33.972Z,2.53
2022-09-05T02:17:49.796Z,2.15
2022-09-05T02:20:28.933Z,2.45
2022-09-05T02:23:04.540Z,2.35
2022-09-05T02:26:11.096Z,2.67
2022-09-05T02:28:44.933Z,2.60
2022-09-05T02:31:22.369Z,2.50
2022-09-05T02:34:02.638Z,2.55
2022-09-05T02:37:03.591Z,2.50
2022-09-05T02:45:01.378Z,2.20
2022-09-05T02:45:08.517Z,1.90
2022-09-05T02:45:38.667Z,1.88
2022-09-05T02:48:14.838Z,2.25
2022-09-05T02:57:23.894Z,3.00
2022-09-05T02:57:32.669Z,2.38
2022-09-05T02:57:38.986Z,3.00
2022-09-05T02:59:14.571Z,3.58
2022-09-05T03:01:44.975Z,4.47
2022-09-05T03:04:11.352Z,4.07
2022-09-05T03:06:40.811Z,4.15
2022-09-05T03:09:23.123Z,3.92
2022-09-05T03:12:28.252Z,3.80
2022-09-05T03:15:01.057Z,3.80
2022-09-05T03:17:36.677Z,4.70
2022-09-05T03:20:32.580Z,4.40
2022-09-05T03:23:02.032Z,4.40
2022-09-05T03:25:43.702Z,4.05
2022-09-05T03:28:33.127Z,4.22
2022-09-05T03:31:22.031Z,4.85
2022-09-05T03:34:08.431Z,4.93
2022-09-05T03:36:40.713Z,4.80
2022-09-05T03:39:22.712Z,5.07
2022-09-05T03:41:49.768Z,4.60
2022-09-05T03:44:19.227Z,3.78
2022-09-05T03:47:05.878Z,3.72
2022-09-05T03:51:45.849Z,2.80
2022-09-05T03:57:13.049Z,2.35
2022-09-05T03:57:13.383Z,3.13
2022-09-05T03:58:41.965Z,2.67
2022-09-05T04:02:08.841Z,3.35
2022-09-05T04:08:14.988Z,2.30
2022-09-05T04:08:24.664Z,1.98
2022-09-05T04:09:52.436Z,2.17
2022-09-05T04:12:22.927Z,2.45
2022-09-05T04:14:55.136Z,3.42
2022-09-05T04:18:03.844Z,4.85
2022-09-05T04:20:40.660Z,6.07
2022-09-05T04:23:25.110Z,5.70
2022-09-05T04:26:11.702Z,7.25
2022-09-05T04:29:02.607Z,7.53
2022-09-05T04:31:34.728Z,8.13
2022-09-05T04:34:33.835Z,9.52
2022-09-05T04:37:01.778Z,9.40
2022-09-05T04:39:28.912Z,9.15
2022-09-05T04:42:04.596Z,8.32
2022-09-05T04:44:34.660Z,8.90
2022-09-05T04:47:05.501Z,8.07
2022-09-05T04:49:33.881Z,7.80
2022-09-05T04:52:30.947Z,8.57
2022-09-05T04:54:57.671Z,8.65
2022-09-05T04:57:33.461Z,9.35
2022-09-05T05:04:57.470Z,10.00
2022-09-05T05:06:11.033Z,9.57
2022-09-05T05:06:15.489Z,10.07
2022-09-05T05:08:51.351Z,10.00
2022-09-05T05:17:58.249Z,9.98
2022-09-05T05:18:00.977Z,10.95
2022-09-05T05:18:08.800Z,11.40
2022-09-05T05:20:40.658Z,12.50
2022-09-05T05:22:45.697Z,11.32
2022-09-05T05:25:13.089Z,10.00
2022-09-05T05:27:45.444Z,9.75
2022-09-05T05:30:12.423Z,9.60
2022-09-05T05:32:46.070Z,9.35
2022-09-05T05:35:20.264Z,9.20
2022-09-05T05:38:05.340Z,10.10
2022-09-05T05:40:50.664Z,9.00
2022-09-05T05:43:20.116Z,9.02
2022-09-05T05:45:46.701Z,9.02
2022-09-05T05:48:19.142Z,9.90
2022-09-05T05:51:03.295Z,11.50
2022-09-05T05:53:42.873Z,12.13
2022-09-05T05:56:31.618Z,11.63
2022-09-05T05:59:03.294Z,12.82
2022-09-05T06:01:45.234Z,11.60
2022-09-05T06:04:30.509Z,10.43
2022-09-05T06:07:06.485Z,10.15
2022-09-05T06:14:49.418Z,9.52
2022-09-05T06:15:01.051Z,9.73
2022-09-05T06:15:57.499Z,8.95
2022-09-05T06:18:48.072Z,9.18
2022-09-05T06:21:45.800Z,8.35
2022-09-05T06:24:53.726Z,8.45
2022-09-05T06:28:01.614Z,7.63
2022-09-05T06:30:36.426Z,8.25
2022-09-05T06:33:18.911Z,8.98
2022-09-05T06:35:50.772Z,8.73
2022-09-05T06:38:44.029Z,9.00
2022-09-05T06:41:49.058Z,9.18
2022-09-05T06:44:35.607Z,9.80
2022-09-05T06:47:22.896Z,10.55
2022-09-05T06:49:59.150Z,11.15
2022-09-05T06:52:54.034Z,14.73
2022-09-05T06:55:29.266Z,12.70
2022-09-05T06:58:09.100Z,12.27
2022-09-05T07:00:55.914Z,14.43
2022-09-05T07:03:37.912Z,13.60
2022-09-05T07:06:07.627Z,13.65
2022-09-05T07:08:51.898Z,13.18
2022-09-05T07:11:19.166Z,12.35
2022-09-05T07:13:45.657Z,13.38
2022-09-05T07:16:16.870Z,14.57
2022-09-05T07:19:25.438Z,16.80
2022-09-05T07:21:51.798Z,14.60
2022-09-05T07:24:50.271Z,13.52
2022-09-05T07:27:10.756Z,14.65
2022-09-05T07:29:52.401Z,14.27
2022-09-05T07:32:28.770Z,14.40
2022-09-05T07:34:56.572Z,15.52
2022-09-05T07:37:26.859Z,15.02
2022-09-05T07:39:53.220Z,15.18
2022-09-05T07:42:39.825Z,14.60
2022-09-05T07:45:10.801Z,13.00
2022-09-05T07:47:52.969Z,11.98
2022-09-05T07:54:07.370Z,12.23
2022-09-05T07:57:03.720Z,11.73
2022-09-05T07:57:09.518Z,11.95
2022-09-05T07:58:49.683Z,12.95
2022-09-05T08:01:17.808Z,12.18
2022-09-05T08:03:53.955Z,11.68
2022-09-05T08:06:30.333Z,14.38
2022-09-05T08:10:08.954Z,14.40
2022-09-05T08:12:27.887Z,13.85
2022-09-05T08:15:46.698Z,13.05
2022-09-05T08:18:40.935Z,11.98
2022-09-05T08:21:27.435Z,11.10
2022-09-05T08:24:05.609Z,10.18
2022-09-05T08:26:49.276Z,9.00
2022-09-05T08:29:18.695Z,9.02
2022-09-05T08:31:52.554Z,8.98
2022-09-05T08:34:31.397Z,8.13
2022-09-05T08:37:06.998Z,7.90
2022-09-05T08:39:34.923Z,6.15
2022-09-05T08:42:24.826Z,5.60
2022-09-05T08:46:41.095Z,5.20
2022-09-05T08:48:01.764Z,4.95
2022-09-05T08:50:28.519Z,4.57
2022-09-05T08:53:18.632Z,4.68
2022-09-05T08:55:59.293Z,3.80
2022-09-05T08:58:25.761Z,3.83
2022-09-05T09:01:12.454Z,4.05
2022-09-05T09:03:51.955Z,3.47
2022-09-05T09:06:20.815Z,3.15
2022-09-05T09:08:54.462Z,3.10
2022-09-05T09:11:34.265Z,2.23
2022-09-05T09:14:30.296Z,2.80
2022-09-05T09:16:57.611Z,2.42
2022-09-05T09:19:29.053Z,2.40
2022-09-05T09:22:10.476Z,2.22
2022-09-05T09:25:15.102Z,2.28
2022-09-05T09:28:48.343Z,2.03
2022-09-05T09:30:36.123Z,1.88
2022-09-05T09:33:03.750Z,1.95
2022-09-05T09:35:33.266Z,2.08
2022-09-05T09:38:19.592Z,2.08
2022-09-05T09:41:00.414Z,1.83
2022-09-05T09:43:34.221Z,1.80
2022-09-05T09:46:10.155Z,2.00
2022-09-05T09:48:55.462Z,1.50
2022-09-05T09:51:40.483Z,1.60
2022-09-05T09:54:21.541Z,1.45
2022-09-05T09:56:55.024Z,1.48
2022-09-05T09:59:27.333Z,1.30
2022-09-05T10:03:50.027Z,1.40
2022-09-05T10:10:37.915Z,1.25
2022-09-05T10:10:46.168Z,1.45
2022-09-05T10:13:58.531Z,1.55
2022-09-05T10:16:24.916Z,1.40
2022-09-05T10:18:59.491Z,1.70
2022-09-05T10:21:48.019Z,1.50
2022-09-05T10:24:23.345Z,1.65
2022-09-05T10:27:08.505Z,1.33
2022-09-05T10:29:41.039Z,1.60
2022-09-05T10:35:04.486Z,1.40
2022-09-05T10:35:20.954Z,1.60
2022-09-05T10:37:54.901Z,1.50
2022-09-05T10:40:23.329Z,1.50
2022-09-05T10:43:00.903Z,1.70
2022-09-05T10:45:30.210Z,1.33
2022-09-05T10:48:13.124Z,1.40
2022-09-05T10:50:42.959Z,1.52
2022-09-05T10:53:15.475Z,1.50
2022-09-05T10:55:55.375Z,1.80
2022-09-05T11:02:16.159Z,1.45
2022-09-05T11:02:20.977Z,1.80
2022-09-05T11:04:46.439Z,1.60
2022-09-05T11:07:29.315Z,1.80
2022-09-05T11:10:11.071Z,1.75
2022-09-05T11:12:37.443Z,1.50
2022-09-05T11:15:14.416Z,1.75
2022-09-05T11:17:48.635Z,1.77
2022-09-05T11:20:35.349Z,2.03
2022-09-05T11:23:17.960Z,1.55
2022-09-05T11:25:46.258Z,1.63
2022-09-05T11:28:15.160Z,1.60
2022-09-05T11:30:43.626Z,1.83
2022-09-05T11:39:05.308Z,1.90
2022-09-05T11:39:51.197Z,1.80
2022-09-05T11:39:54.718Z,1.60
2022-09-05T11:41:42.138Z,1.73
2022-09-05T11:44:25.845Z,1.60
2022-09-05T11:47:30.029Z,1.60
2022-09-05T11:50:16.992Z,1.40
2022-09-05T11:53:04.676Z,1.73
2022-09-05T11:55:31.077Z,1.30
2022-09-05T12:01:41.199Z,1.70
2022-09-05T12:04:16.971Z,1.50
2022-09-05T12:06:49.811Z,1.30
2022-09-05T12:09:28.883Z,1.45
2022-09-05T12:12:39.050Z,1.20
2022-09-05T12:15:07.875Z,1.25
2022-09-05T12:17:43.143Z,1.08
2022-09-05T12:20:21.945Z,1.23
2022-09-05T12:23:01.635Z,1.35
2022-09-05T12:27:41.872Z,1.05
2022-09-05T12:29:25.927Z,1.30
2022-09-05T12:32:36.493Z,1.20
2022-09-05T12:36:03.851Z,0.93
2022-09-05T12:40:04.988Z,1.10
2022-09-05T12:40:46.276Z,1.00
2022-09-05T12:40:55.264Z,1.08
2022-09-05T12:42:38.715Z,1.30
2022-09-05T12:45:16.020Z,1.20
2022-09-05T12:47:56.630Z,1.17
2022-09-05T12:50:39.765Z,1.15
2022-09-05T12:53:09.380Z,1.20
2022-09-05T12:55:42.660Z,1.27
2022-09-05T13:02:56.752Z,1.10
2022-09-05T13:03:08.574Z,1.05
2022-09-05T13:04:18.057Z,1.30
2022-09-05T13:06:47.394Z,1.60
2022-09-05T13:09:16.440Z,1.35
2022-09-05T13:14:48.560Z,1.40
2022-09-05T13:15:06.113Z,1.35
2022-09-05T13:18:16.924Z,1.40
2022-09-05T13:20:54.013Z,1.63
2022-09-05T13:23:50.774Z,1.60
2022-09-05T13:26:19.523Z,1.70
2022-09-05T13:29:10.082Z,1.77
2022-09-05T13:37:55.710Z,1.33
2022-09-05T13:38:06.158Z,1.45
2022-09-05T13:38:17.617Z,1.42
2022-09-05T13:40:26.938Z,1.45
2022-09-05T13:43:09.307Z,1.50
2022-09-05T13:45:45.001Z,1.60
2022-09-05T13:48:27.516Z,1.77
2022-09-05T13:50:57.680Z,1.50
2022-09-05T13:53:26.168Z,1.50
2022-09-05T13:55:54.841Z,1.42
2022-09-05T13:58:42.707Z,1.83
2022-09-05T14:01:14.520Z,1.38
2022-09-05T14:04:00.522Z,1.58
2022-09-05T14:06:45.404Z,1.38
2022-09-05T14:09:36.621Z,1.50
2022-09-05T14:12:15.181Z,1.73
2022-09-05T14:15:08.970Z,1.70
2022-09-05T14:17:56.658Z,1.67
2022-09-05T14:20:44.315Z,1.52
2022-09-05T14:23:17.650Z,1.63
2022-09-05T14:25:47.197Z,1.60
2022-09-05T14:28:52.149Z,1.67
2022-09-05T14:35:18.432Z,1.42
2022-09-05T14:37:50.673Z,1.25
2022-09-05T14:37:52.316Z,1.40
2022-09-05T14:40:30.486Z,1.90
2022-09-05T14:43:26.992Z,1.67
2022-09-05T14:46:13.480Z,1.40
2022-09-05T14:48:53.341Z,1.40
2022-09-05T14:51:30.039Z,1.20
2022-09-05T14:54:02.666Z,1.42
2022-09-05T15:01:53.393Z,1.20
2022-09-05T15:02:44.771Z,1.25
2022-09-05T15:02:49.217Z,1.27
2022-09-05T15:05:17.299Z,1.52
2022-09-05T15:07:44.541Z,1.48
2022-09-05T15:12:14.553Z,1.42
2022-09-05T15:13:12.777Z,1.40
2022-09-05T15:15:39.289Z,1.40
2022-09-05T15:18:20.188Z,1.40
2022-09-05T15:20:48.278Z,1.70
2022-09-05T15:23:26.283Z,1.50
2022-09-05T15:25:58.890Z,1.48
2022-09-05T15:28:33.737Z,1.45
2022-09-05T15:31:07.019Z,1.50
2022-09-05T15:33:34.719Z,1.58
2022-09-05T15:36:01.802Z,1.40
2022-09-05T15:38:30.615Z,1.45
2022-09-05T15:41:20.384Z,1.50
2022-09-05T15:43:51.794Z,1.30
2022-09-05T15:46:23.863Z,1.50
2022-09-05T15:48:55.851Z,1.50
2022-09-05T15:51:40.105Z,1.80
2022-09-05T15:54:10.737Z,1.52
2022-09-05T15:56:46.922Z,1.40
2022-09-05T15:59:13.435Z,1.50
2022-09-05T16:01:59.078Z,1.50
2022-09-05T16:07:08.431Z,1.60
2022-09-05T16:10:40.127Z,1.70
2022-09-05T16:10:49.601Z,1.50
2022-09-05T16:13:06.412Z,1.50
2022-09-05T16:19:29.406Z,1.40
2022-09-05T16:23:12.767Z,1.52
2022-09-05T16:23:25.764Z,2.10
2022-09-05T16:24:24.903Z,1.30
2022-09-05T16:27:11.601Z,1.75
2022-09-05T16:29:43.456Z,1.27
2022-09-05T16:32:24.068Z,1.48
2022-09-05T16:34:59.538Z,1.40
2022-09-05T16:37:46.199Z,1.20
2022-09-05T16:40:19.648Z,1.60
2022-09-05T16:42:54.257Z,1.42
2022-09-05T16:45:28.907Z,1.50
2022-09-05T16:48:06.946Z,1.60
2022-09-05T16:50:39.513Z,1.50
2022-09-05T16:53:30.674Z,1.65
2022-09-05T16:56:25.137Z,1.65
2022-09-05T16:58:53.638Z,1.50
2022-09-05T17:01:37.739Z,1.67
2022-09-05T17:04:15.875Z,1.40
2022-09-05T17:06:51.382Z,1.40
2022-09-05T17:09:20.349Z,1.58
2022-09-05T17:12:00.680Z,1.45
2022-09-05T17:14:35.659Z,1.77
2022-09-05T17:17:36.528Z,1.40
2022-09-05T17:20:05.752Z,1.63
2022-09-05T17:28:43.091Z,1.50
2022-09-05T17:29:23.730Z,1.58
2022-09-05T17:29:49.901Z,1.52
2022-09-05T17:34:18.478Z,1.75
2022-09-05T17:37:07.795Z,1.63
2022-09-05T17:40:00.285Z,1.55
2022-09-05T17:42:32.371Z,1.45
2022-09-05T17:45:17.860Z,1.70
2022-09-05T17:47:52.000Z,1.60
2022-09-05T17:50:28.060Z,1.58
2022-09-05T17:52:59.727Z,1.70
2022-09-05T17:55:34.918Z,1.85
2022-09-05T17:58:20.192Z,1.52
2022-09-05T18:00:48.818Z,1.70
2022-09-05T18:03:51.277Z,1.95
2022-09-05T18:06:18.523Z,1.70
2022-09-05T18:08:51.625Z,1.85
2022-09-05T18:11:25.709Z,1.80
2022-09-05T18:14:06.783Z,1.70
2022-09-05T18:17:35.262Z,1.98
2022-09-05T18:19:33.991Z,1.80
2022-09-05T18:22:11.301Z,1.85
2022-09-05T18:24:46.810Z,1.75
2022-09-05T18:27:37.826Z,1.90
2022-09-05T18:30:19.086Z,1.80
2022-09-05T18:32:54.192Z,2.00
2022-09-05T18:35:52.746Z,2.00
2022-09-05T18:38:29.707Z,2.33
2022-09-05T18:41:14.689Z,2.17
2022-09-05T18:44:01.666Z,2.00
2022-09-05T18:46:45.518Z,2.17
2022-09-05T18:50:23.259Z,2.40
2022-09-05T18:52:23.695Z,2.60
2022-09-05T18:56:09.570Z,2.35
2022-09-05T18:57:44.080Z,2.80
2022-09-05T19:00:14.668Z,2.80
2022-09-05T19:02:58.479Z,2.40
2022-09-05T19:05:43.556Z,3.00
2022-09-05T19:08:28.824Z,2.55
2022-09-05T19:10:59.691Z,2.67
2022-09-05T19:13:31.933Z,2.30
2022-09-05T19:16:07.995Z,2.47
2022-09-05T19:19:03.581Z,2.50
2022-09-05T19:21:33.173Z,2.03
2022-09-05T19:24:02.864Z,2.40
2022-09-05T19:26:31.007Z,2.72
2022-09-05T19:36:56.962Z,2.65
2022-09-05T19:37:03.612Z,2.40
2022-09-05T19:37:06.989Z,2.50
2022-09-05T19:37:36.627Z,2.70
2022-09-05T19:47:13.629Z,2.72
2022-09-05T19:47:28.900Z,2.70
2022-09-05T19:47:45.334Z,2.88
2022-09-05T19:48:34.635Z,2.67
2022-09-05T19:51:16.194Z,3.00
2022-09-05T19:54:04.686Z,2.67
2022-09-05T19:56:40.535Z,3.28
2022-09-05T19:59:15.738Z,3.15
2022-09-05T20:01:43.237Z,2.95
2022-09-05T20:04:16.460Z,3.20
2022-09-05T20:06:42.927Z,2.90
2022-09-05T20:09:20.322Z,3.05
2022-09-05T20:11:49.721Z,3.15
2022-09-05T20:14:18.101Z,2.95
2022-09-05T20:16:44.532Z,3.28
2022-09-05T20:19:29.222Z,3.20
2022-09-05T20:21:58.148Z,3.25
2022-09-05T20:24:27.859Z,3.63
2022-09-05T20:26:54.365Z,3.35
2022-09-05T20:29:54.250Z,3.20
2022-09-05T20:32:16.741Z,3.33
2022-09-05T20:37:40.174Z,4.00
2022-09-05T20:43:09.198Z,3.50
2022-09-05T20:43:20.999Z,3.90
2022-09-05T20:43:35.483Z,4.20
2022-09-05T20:47:36.562Z,4.82
2022-09-05T20:54:08.016Z,4.15
2022-09-05T20:54:18.398Z,3.80
2022-09-05T20:54:34.935Z,3.70
2022-09-05T20:57:18.218Z,3.80
2022-09-05T20:59:44.909Z,3.50
2022-09-05T21:02:27.877Z,3.65
2022-09-05T21:05:11.436Z,3.58
2022-09-05T21:07:54.504Z,4.03
2022-09-05T21:10:34.140Z,4.05
2022-09-05T21:13:19.719Z,3.90
2022-09-05T21:15:53.747Z,3.67
2022-09-05T21:18:22.428Z,3.80
2022-09-05T21:20:56.298Z,3.80
2022-09-05T21:23:34.476Z,3.80
2022-09-05T21:26:04.750Z,3.70
2022-09-05T21:28:36.467Z,4.85
2022-09-05T21:31:06.373Z,4.10
2022-09-05T21:33:45.364Z,4.82
2022-09-05T21:36:16.987Z,4.50
2022-09-05T21:38:43.463Z,4.30
2022-09-05T21:41:10.731Z,4.60
2022-09-05T21:47:37.540Z,4.80
2022-09-05T21:47:39.312Z,4.35
2022-09-05T21:49:15.911Z,4.50
2022-09-05T21:51:48.038Z,4.63
2022-09-05T21:56:38.634Z,4.57
2022-09-05T21:59:22.459Z,4.32
2022-09-05T21:59:59.531Z,5.28
2022-09-05T22:02:34.444Z,5.15
2022-09-05T22:05:03.543Z,5.25
2022-09-05T22:07:35.752Z,5.07
2022-09-05T22:10:04.108Z,5.35
2022-09-05T22:12:35.892Z,5.72
2022-09-05T22:15:26.614Z,5.70
2022-09-05T22:17:54.260Z,5.70
2022-09-05T22:20:25.636Z,5.95
2022-09-05T22:22:56.240Z,5.65
2022-09-05T22:25:28.398Z,6.20
2022-09-05T22:27:57.369Z,5.40
2022-09-05T22:30:24.093Z,5.65
2022-09-05T22:32:50.463Z,5.07
2022-09-05T22:35:28.605Z,5.45
2022-09-05T22:38:00.058Z,5.38
2022-09-05T22:40:27.590Z,5.50
2022-09-05T22:42:58.056Z,5.50
2022-09-05T22:45:24.797Z,5.68
2022-09-05T22:47:51.229Z,5.78
2022-09-05T22:50:17.766Z,5.70
2022-09-05T22:52:46.283Z,5.72
2022-09-05T22:55:15.059Z,5.15
2022-09-05T22:57:41.946Z,5.72
2022-09-05T23:00:08.628Z,5.18
2022-09-05T23:02:35.208Z,5.57
2022-09-05T23:05:02.139Z,5.78
2022-09-05T23:07:29.134Z,5.35
2022-09-05T23:09:55.485Z,5.30
2022-09-05T23:12:21.844Z,5.95
2022-09-05T23:14:48.195Z,5.93
2022-09-05T23:17:14.713Z,5.65
2022-09-05T23:19:41.095Z,6.30
2022-09-05T23:22:07.434Z,6.43
2022-09-05T23:24:36.226Z,5.32
2022-09-05T23:27:02.591Z,5.80
2022-09-05T23:29:29.003Z,6.18
2022-09-05T23:31:56.301Z,6.80
2022-09-05T23:34:25.592Z,6.03
2022-09-05T23:36:51.985Z,6.10
2022-09-05T23:39:18.373Z,6.07
2022-09-05T23:41:45.846Z,6.45
2022-09-05T23:44:12.264Z,6.82
2022-09-05T23:46:40.310Z,6.35
2022-09-05T23:49:07.058Z,6.55
2022-09-05T23:51:33.423Z,6.20
2022-09-05T23:53:59.808Z,6.90
2022-09-05T23:56:26.191Z,5.97
2022-09-05T23:58:52.594Z,6.30
